Time;durP1;ratioP1;P1;durP2;ratioP2;P2;SDS_P1;SDS_P2;PMS_P1;PMS_P2;Temp;Humidity;BMP_temperature;BMP_pressure;BME280_temperature;BME280_humidity;BME280_pressure;Samples;Min_cycle;Max_cycle;Signal;HPM_P1;HPM_P2
2023/07/07 00:01:36;;;;;;;1.45;0.57;;;;;;;21.13;38.58;100433.97;10354858;28;20057;-60
2023/07/07 00:06:38;;;;;;;1.77;0.70;;;;;;;20.98;39.10;100423.16;10358912;28;20719;-62
2023/07/07 00:11:39;;;;;;;1.05;0.65;;;;;;;20.94;39.08;100435.38;10353984;28;20045;-62
2023/07/07 00:16:41;;;;;;;2.25;0.70;;;;;;;20.78;39.41;100412.88;10356842;28;20077;-64
2023/07/07 00:21:42;;;;;;;2.85;0.75;;;;;;;20.75;39.97;100418.69;10350500;28;20057;-63
2023/07/07 00:26:44;;;;;;;3.03;0.90;;;;;;;20.73;40.00;100433.41;10359696;28;20676;-63
2023/07/07 00:31:45;;;;;;;1.85;0.60;;;;;;;20.64;40.24;100427.19;10359171;28;20060;-62
2023/07/07 00:36:47;;;;;;;1.20;0.73;;;;;;;20.58;40.43;100428.81;10352976;28;20058;-63
2023/07/07 00:41:48;;;;;;;1.55;0.70;;;;;;;20.49;40.16;100428.03;10350985;28;20089;-64
2023/07/07 00:46:49;;;;;;;2.72;0.55;;;;;;;20.48;40.72;100436.34;10356215;28;20053;-64
2023/07/07 00:51:58;;;;;;;1.00;0.60;;;;;;;20.37;40.96;100425.97;10352061;28;20057;-63
2023/07/07 00:57:03;;;;;;;1.65;0.70;;;;;;;20.39;41.17;100451.78;10351098;28;20088;-63
2023/07/07 01:02:14;;;;;;;2.70;0.60;;;;;;;20.34;41.43;100453.34;10350278;28;20639;-63
2023/07/07 01:07:31;;;;;;;1.08;0.70;;;;;;;20.30;41.28;100447.50;10354653;28;20121;-64
2023/07/07 01:12:33;;;;;;;0.98;0.65;;;;;;;20.25;41.15;100447.19;10351545;28;20861;-63
2023/07/07 01:18:09;;;;;;;1.67;0.60;;;;;;;20.20;41.41;100460.41;10353658;28;20060;-62
2023/07/07 01:23:48;;;;;;;2.90;0.88;;;;;;;20.16;41.70;100456.38;10358544;28;20049;-64
2023/07/07 01:29:14;;;;;;;2.35;0.82;;;;;;;19.95;41.73;100438.97;10352195;28;20137;-63
2023/07/07 01:34:16;;;;;;;1.23;0.85;;;;;;;20.04;41.47;100454.13;10354485;28;20053;-63
2023/07/07 01:39:18;;;;;;;1.33;0.88;;;;;;;19.93;41.87;100439.16;10347261;28;20471;-61
2023/07/07 01:44:41;;;;;;;1.85;0.80;;;;;;;19.91;42.01;100456.59;10358990;28;20049;-62
2023/07/07 01:50:01;;;;;;;4.63;0.70;;;;;;;19.83;41.96;100462.03;10351635;28;20112;-63
2023/07/07 01:55:16;;;;;;;1.33;0.60;;;;;;;19.75;42.26;100461.03;10357696;28;20053;-63
2023/07/07 02:00:20;;;;;;;2.00;0.70;;;;;;;19.70;42.54;100452.63;10352383;28;20190;-63
2023/07/07 02:05:21;;;;;;;1.63;0.73;;;;;;;19.78;42.39;100455.28;10355078;28;20061;-62
2023/07/07 02:10:22;;;;;;;2.50;1.20;;;;;;;19.72;42.65;100458.69;10356970;28;20053;-62
2023/07/07 02:15:24;;;;;;;1.55;0.65;;;;;;;19.74;42.42;100463.91;10352062;28;20510;-63
2023/07/07 02:20:25;;;;;;;1.92;0.82;;;;;;;19.61;41.94;100453.69;10345969;28;20459;-62
2023/07/07 02:25:27;;;;;;;2.63;1.27;;;;;;;19.68;42.00;100456.53;10358699;28;20247;-63
2023/07/07 02:30:28;;;;;;;1.33;0.73;;;;;;;19.59;42.08;100461.97;10351408;28;20054;-64
2023/07/07 02:35:31;;;;;;;1.98;0.85;;;;;;;19.49;42.34;100460.53;10349911;28;20045;-63
2023/07/07 02:40:32;;;;;;;1.00;0.75;;;;;;;19.49;42.27;100458.66;10350316;28;20054;-63
2023/07/07 02:45:34;;;;;;;1.73;0.90;;;;;;;19.41;42.95;100466.78;10352195;28;20070;-63
2023/07/07 02:50:35;;;;;;;3.20;0.68;;;;;;;19.31;42.98;100456.22;10349331;28;20692;-63
2023/07/07 02:55:36;;;;;;;2.55;0.93;;;;;;;19.23;43.50;100456.25;10351211;28;20443;-64
2023/07/07 03:00:38;;;;;;;1.55;0.70;;;;;;;19.23;43.50;100476.00;10351559;28;20081;-64
2023/07/07 03:05:40;;;;;;;2.17;0.90;;;;;;;19.15;43.83;100470.59;10362570;28;20042;-63
2023/07/07 03:10:42;;;;;;;1.83;1.23;;;;;;;19.13;43.80;100485.31;10366073;28;20050;-65
2023/07/07 03:15:43;;;;;;;1.33;0.93;;;;;;;19.12;44.38;100486.31;10362478;28;20050;-64
2023/07/07 03:20:49;;;;;;;3.28;1.10;;;;;;;19.09;44.53;100487.50;10366311;28;20099;-64
2023/07/07 03:25:50;;;;;;;3.15;1.05;;;;;;;19.03;44.54;100491.72;10364438;28;20464;-65
2023/07/07 03:30:52;;;;;;;1.42;1.02;;;;;;;19.02;44.76;100500.84;10360777;28;20789;-65
2023/07/07 03:35:53;;;;;;;1.52;0.98;;;;;;;19.00;44.38;100500.16;10360800;28;20049;-64
2023/07/07 03:40:54;;;;;;;1.77;0.98;;;;;;;18.98;44.20;100494.09;10359704;28;21249;-63
2023/07/07 03:45:56;;;;;;;2.72;1.05;;;;;;;18.96;44.69;100512.34;10361660;28;20061;-63
2023/07/07 03:51:03;;;;;;;2.05;1.00;;;;;;;18.87;44.36;100499.84;10362579;28;20063;-64
2023/07/07 03:56:05;;;;;;;1.30;0.63;;;;;;;18.83;44.32;100490.41;10367190;28;20737;-65
2023/07/07 04:01:09;;;;;;;2.08;0.85;;;;;;;18.81;44.49;100508.59;10360095;28;20046;-63
2023/07/07 04:06:11;;;;;;;3.05;0.90;;;;;;;18.81;44.81;100503.19;10363210;28;20504;-65
2023/07/07 04:11:12;;;;;;;3.08;1.33;;;;;;;18.89;44.71;100505.94;10366575;28;20049;-65
2023/07/07 04:16:25;;;;;;;1.77;1.00;;;;;;;18.92;45.06;100510.97;10362630;28;20118;-64
2023/07/07 04:21:28;;;;;;;1.67;0.88;;;;;;;18.93;45.41;100520.78;10365076;28;20459;-64
2023/07/07 04:26:31;;;;;;;1.88;0.90;;;;;;;18.94;45.22;100517.03;10361645;28;20603;-64
2023/07/07 04:31:32;;;;;;;1.63;0.98;;;;;;;18.91;45.47;100522.78;10362625;28;20065;-62
2023/07/07 04:36:34;;;;;;;2.17;1.20;;;;;;;18.85;45.71;100518.03;10367223;28;20063;-63
2023/07/07 04:41:35;;;;;;;1.52;1.33;;;;;;;18.76;46.08;100514.50;10356275;28;20082;-64
2023/07/07 04:46:38;;;;;;;2.20;1.10;;;;;;;18.81;45.90;100532.88;10355930;28;20128;-65
2023/07/07 04:51:41;;;;;;;1.10;1.00;;;;;;;18.77;46.46;100526.16;10361075;28;20047;-64
2023/07/07 04:56:44;;;;;;;1.88;1.48;;;;;;;18.82;47.18;100542.66;10360685;28;20054;-63
2023/07/07 05:01:46;;;;;;;2.63;1.05;;;;;;;18.84;46.85;100537.91;10359452;28;20483;-64
2023/07/07 05:06:47;;;;;;;3.65;1.00;;;;;;;18.84;46.95;100532.53;10338650;28;20049;-64
2023/07/07 05:11:49;;;;;;;4.60;1.40;;;;;;;18.72;47.74;100519.41;10352196;28;20056;-70
2023/07/07 05:16:52;;;;;;;1.90;1.33;;;;;;;18.93;47.46;100544.19;10349429;28;20045;-70
2023/07/07 05:21:53;;;;;;;2.27;0.93;;;;;;;19.02;46.33;100556.63;10350578;28;20859;-67
2023/07/07 05:26:55;;;;;;;2.30;1.00;;;;;;;18.97;47.13;100549.06;10352359;28;20615;-65
2023/07/07 05:31:56;;;;;;;2.30;1.00;;;;;;;19.14;46.52;100559.81;10348522;28;20136;-66
2023/07/07 05:36:58;;;;;;;2.22;1.00;;;;;;;19.23;46.79;100553.38;10347629;28;20053;-67
2023/07/07 05:41:59;;;;;;;3.85;1.17;;;;;;;19.28;47.42;100567.22;10349929;28;20068;-69
2023/07/07 05:47:01;;;;;;;2.15;0.93;;;;;;;19.33;46.59;100566.69;10349421;28;20134;-62
2023/07/07 05:52:02;;;;;;;2.58;0.98;;;;;;;19.38;46.89;100567.88;10344066;28;20156;-62
2023/07/07 05:57:04;;;;;;;2.05;1.05;;;;;;;19.47;46.27;100568.69;10347793;28;20061;-65
2023/07/07 06:02:07;;;;;;;2.03;1.20;;;;;;;19.58;45.86;100562.06;10347547;28;20529;-63
2023/07/07 06:07:09;;;;;;;2.07;0.90;;;;;;;19.70;45.71;100552.53;10346396;28;20057;-63
2023/07/07 06:12:10;;;;;;;6.03;1.65;;;;;;;19.72;45.68;100536.16;10344347;28;20149;-64
2023/07/07 06:17:12;;;;;;;1.80;1.23;;;;;;;19.80;45.80;100544.25;10343625;28;20049;-64
2023/07/07 06:22:13;;;;;;;1.33;0.77;;;;;;;20.11;45.65;100555.03;10345347;28;20064;-63
2023/07/07 06:27:14;;;;;;;4.10;1.20;;;;;;;20.24;44.98;100557.16;10342920;28;20140;-64
2023/07/07 06:32:16;;;;;;;1.77;1.10;;;;;;;20.36;44.32;100538.66;10333645;28;20053;-64
2023/07/07 06:37:17;;;;;;;3.80;1.02;;;;;;;20.57;44.12;100545.28;10341461;28;20097;-63
2023/07/07 06:42:19;;;;;;;4.55;1.10;;;;;;;20.70;43.86;100553.59;10357837;28;20060;-64
2023/07/07 06:47:20;;;;;;;7.57;1.85;;;;;;;20.75;43.31;100529.56;10349442;28;20075;-68
2023/07/07 06:52:22;;;;;;;3.33;1.40;;;;;;;20.90;43.66;100553.94;10348342;28;20045;-63
2023/07/07 06:57:23;;;;;;;1.95;0.93;;;;;;;20.93;43.38;100544.63;10345655;28;20053;-60
2023/07/07 07:02:24;;;;;;;2.35;1.33;;;;;;;21.07;43.46;100538.38;10346591;28;20049;-65
2023/07/07 07:07:26;;;;;;;2.95;1.20;;;;;;;21.21;43.60;100542.13;10340144;28;20064;-66
2023/07/07 07:12:28;;;;;;;1.95;1.20;;;;;;;21.40;42.81;100548.00;10341491;28;20063;-66
2023/07/07 07:17:30;;;;;;;4.15;1.58;;;;;;;21.56;42.83;100552.41;10341103;28;20052;-64
2023/07/07 07:22:34;;;;;;;2.80;1.25;;;;;;;21.75;42.47;100546.41;10340080;28;20076;-63
2023/07/07 07:27:37;;;;;;;2.10;1.30;;;;;;;21.96;42.16;100547.47;10340924;28;20191;-67
2023/07/07 07:32:38;;;;;;;3.63;1.45;;;;;;;22.16;42.08;100548.53;10344967;28;20616;-64
2023/07/07 07:37:40;;;;;;;1.27;0.80;;;;;;;22.40;41.60;100541.94;10337466;28;20060;-66
2023/07/07 07:42:41;;;;;;;2.40;0.95;;;;;;;22.56;41.87;100538.13;10342907;28;20045;-64
2023/07/07 07:47:43;;;;;;;3.35;0.90;;;;;;;22.70;40.96;100541.78;10344850;28;20085;-64
2023/07/07 07:52:45;;;;;;;2.00;1.30;;;;;;;22.97;40.70;100552.84;10348528;28;20100;-63
2023/07/07 07:57:47;;;;;;;2.53;1.05;;;;;;;23.20;40.98;100544.44;10349956;28;25576;-65
2023/07/07 08:02:48;;;;;;;5.28;1.63;;;;;;;23.29;40.04;100534.25;10349836;28;20382;-63
2023/07/07 08:07:50;;;;;;;1.48;1.08;;;;;;;23.31;40.06;100540.31;10351810;28;20045;-63
2023/07/07 08:12:51;;;;;;;1.63;1.08;;;;;;;23.59;39.45;100532.09;10353752;28;20132;-63
2023/07/07 08:17:53;;;;;;;2.47;1.17;;;;;;;23.78;38.73;100525.06;10349655;28;20046;-63
2023/07/07 08:22:54;;;;;;;2.03;1.30;;;;;;;24.17;38.46;100536.31;10349266;28;20053;-62
2023/07/07 08:27:55;;;;;;;2.70;1.52;;;;;;;24.46;36.95;100528.78;10349712;28;20603;-63
2023/07/07 08:33:00;;;;;;;4.13;1.48;;;;;;;24.55;36.82;100540.31;10348272;28;20267;-63
2023/07/07 08:38:02;;;;;;;2.13;1.20;;;;;;;24.80;36.44;100540.53;10351412;28;20041;-63
2023/07/07 08:43:03;;;;;;;3.60;1.50;;;;;;;24.97;35.79;100535.50;10345515;28;20110;-62
2023/07/07 08:48:37;;;;;;;4.05;1.35;;;;;;;25.27;34.76;100530.41;10346709;28;20072;-64
2023/07/07 08:54:02;;;;;;;6.25;1.95;;;;;;;25.44;34.83;100540.88;10346983;28;20125;-64
2023/07/07 08:59:37;;;;;;;2.75;1.10;;;;;;;25.63;33.80;100534.50;10345639;28;20050;-64
2023/07/07 09:04:50;;;;;;;2.45;1.27;;;;;;;25.75;34.18;100527.31;10344890;28;20049;-66
2023/07/07 09:10:05;;;;;;;2.33;1.25;;;;;;;25.97;34.03;100534.34;10349055;28;20139;-64
2023/07/07 09:15:18;;;;;;;3.30;1.83;;;;;;;26.28;33.39;100519.91;10356329;28;20355;-65
2023/07/07 09:20:22;;;;;;;;;;;;;;;26.54;32.06;100518.00;10339056;28;20340;-62
2023/07/07 09:25:30;;;;;;;1.80;1.38;;;;;;;26.60;31.52;100517.97;10343644;28;19975;-64
2023/07/07 09:30:58;;;;;;;2.85;1.10;;;;;;;26.67;31.06;100507.00;10344545;28;20500;-63
2023/07/07 09:36:09;;;;;;;3.35;1.38;;;;;;;26.96;31.27;100512.81;10345807;28;21187;-64
2023/07/07 09:41:34;;;;;;;2.65;1.33;;;;;;;27.11;30.40;100507.00;10342938;28;20069;-63
2023/07/07 09:47:12;;;;;;;4.30;1.48;;;;;;;27.20;30.10;100504.81;10343691;28;20942;-65
2023/07/07 09:52:36;;;;;;;3.28;1.30;;;;;;;27.44;29.99;100501.19;10343482;28;20305;-63
2023/07/07 09:57:41;;;;;;;2.10;1.60;;;;;;;27.80;28.56;100510.41;10342210;28;20147;-63
2023/07/07 10:02:45;;;;;;;1.80;1.10;;;;;;;27.76;29.99;100500.97;10356235;28;20164;-62
2023/07/07 10:07:46;;;;;;;3.15;1.80;;;;;;;28.07;28.10;100488.13;10340127;28;20623;-64
2023/07/07 10:12:48;;;;;;;3.03;1.67;;;;;;;28.14;29.34;100477.94;10338281;28;20080;-64
2023/07/07 10:18:12;;;;;;;3.30;1.90;;;;;;;28.48;28.21;100489.19;10347170;28;20050;-66
2023/07/07 10:23:15;;;;;;;3.03;1.55;;;;;;;28.57;28.91;100486.94;10356277;28;20053;-65
2023/07/07 10:28:19;;;;;;;3.47;1.73;;;;;;;28.71;28.20;100468.38;10345032;28;20057;-64
2023/07/07 10:33:21;;;;;;;2.22;1.58;;;;;;;28.87;28.90;100459.44;10343959;28;20057;-64
2023/07/07 10:38:23;;;;;;;4.60;1.40;;;;;;;29.03;28.03;100435.09;10346180;28;20390;-65
2023/07/07 10:43:25;;;;;;;2.05;1.70;;;;;;;29.40;28.22;100462.22;10342211;28;20148;-64
2023/07/07 10:48:27;;;;;;;4.03;2.15;;;;;;;29.39;26.98;100466.84;10344570;28;20207;-63
2023/07/07 10:53:59;;;;;;;4.20;2.90;;;;;;;29.41;27.56;100469.34;10341615;28;20053;-64
2023/07/07 10:59:41;;;;;;;3.00;2.35;;;;;;;29.56;26.82;100455.09;10340872;28;20063;-63
2023/07/07 11:04:46;;;;;;;4.00;2.50;;;;;;;29.69;27.21;100448.50;10339615;28;20037;-64
2023/07/07 11:10:12;;;;;;;5.15;2.47;;;;;;;29.55;26.51;100432.34;10339307;28;20053;-64
2023/07/07 11:15:33;;;;;;;2.58;2.20;;;;;;;29.77;27.26;100426.13;10343043;28;20539;-63
2023/07/07 11:20:55;;;;;;;4.60;2.92;;;;;;;29.97;26.63;100420.22;10342689;28;20045;-63
2023/07/07 11:26:11;;;;;;;3.92;2.50;;;;;;;30.17;27.21;100422.47;10346092;28;20593;-64
2023/07/07 11:31:18;;;;;;;4.78;3.25;;;;;;;30.25;25.76;100427.56;10359372;28;20049;-64
2023/07/07 11:36:32;;;;;;;4.40;3.33;;;;;;;30.26;25.09;100418.22;10346389;28;20853;-64
2023/07/07 11:41:42;;;;;;;3.35;2.90;;;;;;;30.41;25.29;100411.34;10348698;28;20200;-63
2023/07/07 11:46:58;;;;;;;4.15;3.10;;;;;;;30.58;24.50;100414.91;10350649;28;20106;-63
2023/07/07 11:52:23;;;;;;;5.22;3.50;;;;;;;30.63;25.28;100403.16;10349663;28;20053;-63
2023/07/07 11:57:51;;;;;;;6.63;4.75;;;;;;;30.63;23.51;100400.41;10347928;28;20251;-64
2023/07/07 12:03:27;;;;;;;4.60;3.88;;;;;;;30.57;24.03;100399.50;10346975;28;20045;-64
2023/07/07 12:08:44;;;;;;;5.80;3.92;;;;;;;30.58;24.12;100383.84;10347603;28;20111;-64
2023/07/07 12:14:11;;;;;;;5.03;4.30;;;;;;;30.74;22.69;100393.94;10350542;28;20097;-63
2023/07/07 12:19:22;;;;;;;6.57;4.68;;;;;;;30.71;22.77;100382.66;10344971;28;20050;-63
2023/07/07 12:24:39;;;;;;;5.82;5.22;;;;;;;30.65;22.17;100384.47;10341804;28;20107;-63
2023/07/07 12:29:44;;;;;;;5.50;4.93;;;;;;;30.64;23.74;100377.31;10310835;28;1045371;-63
2023/07/07 12:35:00;;;;;;;6.20;4.72;;;;;;;30.91;23.90;100374.66;10345591;28;20131;-63
2023/07/07 12:40:16;;;;;;;5.93;5.32;;;;;;;31.06;23.38;100362.22;10349212;28;20052;-64
2023/07/07 12:45:27;;;;;;;5.97;5.38;;;;;;;31.05;24.19;100361.38;10347974;28;20159;-64
2023/07/07 12:50:34;;;;;;;5.00;4.60;;;;;;;31.15;24.03;100347.78;10349566;28;20219;-64
2023/07/07 12:55:38;;;;;;;8.82;5.30;;;;;;;31.17;23.57;100353.81;10346518;28;20132;-63
2023/07/07 13:00:41;;;;;;;6.80;5.43;;;;;;;31.08;24.10;100360.06;10345439;28;20040;-63
2023/07/07 13:05:48;;;;;;;5.97;4.70;;;;;;;31.11;24.40;100341.13;10355480;28;20115;-63
2023/07/07 13:10:59;;;;;;;6.10;5.53;;;;;;;31.17;24.23;100347.50;10378300;28;20049;-63
2023/07/07 13:16:00;;;;;;;5.70;4.93;;;;;;;31.19;24.37;100340.63;10350168;28;20041;-64
2023/07/07 13:21:04;;;;;;;5.53;4.65;;;;;;;31.09;24.86;100328.72;10362685;28;20045;-64
2023/07/07 13:26:05;;;;;;;5.25;4.50;;;;;;;31.00;24.29;100342.94;10346800;28;20064;-63
2023/07/07 13:31:14;;;;;;;4.50;4.10;;;;;;;30.98;25.14;100338.75;10347788;28;20069;-64
2023/07/07 13:36:16;;;;;;;5.05;4.55;;;;;;;31.10;25.16;100319.38;10349783;28;20588;-64
2023/07/07 13:41:19;;;;;;;4.93;4.30;;;;;;;31.01;24.76;100305.28;10345388;28;20057;-63
2023/07/07 13:46:33;;;;;;;6.13;4.05;;;;;;;31.19;25.30;100320.56;10347767;28;20363;-63
2023/07/07 13:51:37;;;;;;;7.32;4.38;;;;;;;31.09;25.31;100317.72;10344762;28;20536;-64
2023/07/07 13:56:43;;;;;;;6.43;4.40;;;;;;;30.97;25.05;100310.44;10345094;28;20068;-64
2023/07/07 14:01:45;;;;;;;5.95;4.40;;;;;;;30.95;24.99;100292.53;10344717;28;20052;-64
2023/07/07 14:06:47;;;;;;;5.35;4.53;;;;;;;31.02;25.15;100304.19;10343969;28;20061;-63
2023/07/07 14:11:57;;;;;;;4.53;3.90;;;;;;;30.78;25.03;100276.16;10345978;28;20069;-63
2023/07/07 14:17:05;;;;;;;4.93;4.03;;;;;;;30.87;24.86;100285.59;10347520;28;20053;-65
2023/07/07 14:22:07;;;;;;;5.32;4.53;;;;;;;30.84;24.60;100297.09;10345911;28;20043;-65
2023/07/07 14:27:12;;;;;;;;;;;;;;;30.75;24.64;100291.22;10347682;28;20045;-65
2023/07/07 14:32:23;;;;;;;5.78;5.13;;;;;;;30.60;24.98;100282.81;10349063;28;19988;-65
2023/07/07 14:37:36;;;;;;;5.90;4.30;;;;;;;30.56;25.13;100266.00;10346122;28;20123;-63
2023/07/07 14:42:48;;;;;;;6.10;5.03;;;;;;;30.59;25.13;100273.72;10342698;28;20045;-65
2023/07/07 14:47:50;;;;;;;5.90;4.93;;;;;;;30.58;25.58;100268.47;10346966;28;20138;-64
2023/07/07 14:52:53;;;;;;;9.63;5.10;;;;;;;30.49;25.09;100254.38;10350461;28;20049;-64
2023/07/07 14:57:58;;;;;;;5.68;5.10;;;;;;;30.47;24.49;100267.53;10349291;28;20292;-65
2023/07/07 15:02:59;;;;;;;5.60;4.65;;;;;;;30.41;25.18;100263.06;10353834;28;20065;-64
2023/07/07 15:08:10;;;;;;;6.05;5.32;;;;;;;30.31;24.01;100263.72;10354180;28;20069;-64
2023/07/07 15:13:20;;;;;;;6.72;5.28;;;;;;;30.26;23.88;100261.75;10362005;28;20053;-64
2023/07/07 15:18:22;;;;;;;6.00;5.35;;;;;;;30.12;24.82;100254.97;10352796;28;20057;-63
2023/07/07 15:23:23;;;;;;;7.82;5.60;;;;;;;30.13;24.41;100259.34;10354023;28;20665;-63
2023/07/07 15:28:24;;;;;;;5.37;4.80;;;;;;;30.12;24.99;100247.56;10358580;28;20049;-64
2023/07/07 15:33:26;;;;;;;7.03;5.40;;;;;;;30.08;24.65;100237.34;10355752;28;20631;-65
2023/07/07 15:38:45;;;;;;;7.93;5.67;;;;;;;30.06;24.51;100229.38;10346873;28;20106;-62
2023/07/07 15:43:48;;;;;;;5.80;5.20;;;;;;;30.11;24.11;100242.31;10363377;28;20049;-63
2023/07/07 15:48:49;;;;;;;7.80;5.20;;;;;;;30.10;24.56;100237.91;10356744;28;20049;-64
2023/07/07 15:53:55;;;;;;;6.57;5.53;;;;;;;30.06;24.32;100228.56;10356878;28;20508;-63
2023/07/07 15:58:56;;;;;;;8.30;5.50;;;;;;;30.00;23.89;100235.06;10355820;28;20053;-63
2023/07/07 16:03:58;;;;;;;6.63;5.93;;;;;;;29.95;24.05;100233.91;10355258;28;20084;-63
2023/07/07 16:08:59;;;;;;;6.30;5.55;;;;;;;29.84;23.62;100218.34;10356759;28;20759;-65
2023/07/07 16:14:01;;;;;;;6.20;5.60;;;;;;;29.86;23.74;100218.94;10364380;28;20114;-64
2023/07/07 16:19:11;;;;;;;6.53;5.50;;;;;;;29.78;24.25;100216.59;10366613;28;20680;-63
2023/07/07 16:24:14;;;;;;;7.38;5.63;;;;;;;29.86;24.15;100224.44;10362432;28;20053;-63
2023/07/07 16:29:18;;;;;;;6.85;5.82;;;;;;;29.90;24.10;100219.25;10361931;28;20369;-63
2023/07/07 16:34:19;;;;;;;7.38;6.43;;;;;;;29.88;23.49;100226.94;10361782;28;20485;-64
2023/07/07 16:39:20;;;;;;;8.20;6.10;;;;;;;29.87;23.79;100214.28;10365513;28;20053;-64
2023/07/07 16:44:22;;;;;;;7.10;6.13;;;;;;;29.80;23.57;100203.47;10367908;28;20486;-63
2023/07/07 16:49:24;;;;;;;6.40;5.73;;;;;;;29.87;23.33;100209.63;10363810;28;20137;-63
2023/07/07 16:54:26;;;;;;;8.32;6.65;;;;;;;29.84;23.91;100212.88;10368892;28;20056;-64
2023/07/07 16:59:27;;;;;;;7.05;5.93;;;;;;;29.83;23.47;100208.50;10377568;28;20072;-64
2023/07/07 17:04:28;;;;;;;7.13;6.40;;;;;;;29.80;23.73;100208.97;10363637;28;20111;-64
2023/07/07 17:09:30;;;;;;;6.90;6.23;;;;;;;29.77;24.02;100212.19;10363153;28;20062;-65
2023/07/07 17:14:31;;;;;;;7.90;6.30;;;;;;;29.73;23.50;100197.34;10360822;28;20099;-64
2023/07/07 17:19:33;;;;;;;7.10;6.40;;;;;;;29.67;24.16;100199.16;10364868;28;20112;-64
2023/07/07 17:24:34;;;;;;;7.50;6.40;;;;;;;29.69;23.81;100207.97;10357370;28;20080;-64
2023/07/07 17:29:35;;;;;;;7.00;6.30;;;;;;;29.64;23.94;100199.66;10362370;28;20149;-63
2023/07/07 17:34:37;;;;;;;6.30;5.47;;;;;;;29.61;23.84;100206.47;10358487;28;20516;-63
2023/07/07 17:39:38;;;;;;;6.70;6.10;;;;;;;29.53;24.40;100187.72;10361655;28;20061;-64
2023/07/07 17:44:40;;;;;;;7.00;6.30;;;;;;;29.50;24.56;100188.22;10363085;28;20091;-63
2023/07/07 17:49:41;;;;;;;8.27;6.88;;;;;;;29.52;24.41;100183.31;10362783;28;20038;-62
2023/07/07 17:54:43;;;;;;;6.67;6.00;;;;;;;29.45;25.10;100182.66;10366411;28;20045;-63
2023/07/07 17:59:45;;;;;;;7.03;5.95;;;;;;;29.38;24.93;100190.19;10364862;28;20065;-63
2023/07/07 18:04:47;;;;;;;8.88;6.93;;;;;;;29.29;24.92;100178.84;10365928;28;20049;-63
2023/07/07 18:09:48;;;;;;;7.13;6.43;;;;;;;29.22;24.94;100175.44;10361784;28;20068;-63
2023/07/07 18:14:50;;;;;;;7.97;6.75;;;;;;;29.16;25.12;100170.94;10366392;28;20462;-63
2023/07/07 18:19:55;;;;;;;7.30;6.03;;;;;;;29.13;25.54;100176.91;10364877;28;20132;-63
2023/07/07 18:25:17;;;;;;;8.80;6.90;;;;;;;29.03;25.08;100174.81;10364299;28;20053;-63
2023/07/07 18:30:30;;;;;;;8.60;7.70;;;;;;;28.99;25.26;100174.50;10361741;28;20631;-63
2023/07/07 18:35:32;;;;;;;6.88;5.85;;;;;;;28.88;26.00;100170.72;10363226;28;20049;-63
2023/07/07 18:40:37;;;;;;;8.05;6.60;;;;;;;28.88;26.20;100178.13;10360124;28;20119;-62
2023/07/07 18:45:38;;;;;;;7.25;6.55;;;;;;;28.76;26.42;100169.13;10361144;28;20610;-62
2023/07/07 18:50:41;;;;;;;6.80;6.20;;;;;;;28.74;26.57;100183.91;10366805;28;20408;-64
2023/07/07 18:55:44;;;;;;;7.97;7.15;;;;;;;28.60;27.16;100170.75;10364251;28;20053;-62
2023/07/07 19:00:46;;;;;;;8.45;7.53;;;;;;;28.45;27.37;100165.78;10370413;28;20049;-61
2023/07/07 19:05:47;;;;;;;7.55;6.22;;;;;;;28.52;28.20;100189.19;10367801;28;20152;-62
2023/07/07 19:10:49;;;;;;;7.82;6.78;;;;;;;28.44;28.65;100195.06;10358602;28;20113;-63
2023/07/07 19:15:52;;;;;;;9.57;7.03;;;;;;;28.36;28.55;100190.81;10359762;28;20049;-62
2023/07/07 19:20:55;;;;;;;8.40;7.53;;;;;;;28.29;28.98;100192.03;10356175;28;20156;-63
2023/07/07 19:25:56;;;;;;;;;;;;;;;28.21;28.65;100196.81;10355691;28;20058;-63
2023/07/07 19:30:59;;;;;;;7.50;5.97;;;;;;;28.08;29.33;100188.03;10355367;28;19929;-64
2023/07/07 19:36:00;;;;;;;6.40;5.68;;;;;;;28.06;29.26;100196.50;10354834;28;20049;-64
2023/07/07 19:41:04;;;;;;;6.93;6.00;;;;;;;27.96;29.91;100196.25;10358201;28;20044;-64
2023/07/07 19:46:16;;;;;;;6.80;6.00;;;;;;;27.73;30.18;100161.53;10359193;28;21143;-64
2023/07/07 19:51:24;;;;;;;6.67;5.63;;;;;;;27.82;29.89;100196.50;10360640;28;20053;-63
2023/07/07 19:56:27;;;;;;;5.85;5.22;;;;;;;27.67;29.98;100187.94;10364963;28;20060;-63
2023/07/07 20:01:31;;;;;;;7.63;5.13;;;;;;;27.65;30.34;100196.38;10362045;28;20053;-64
2023/07/07 20:06:36;;;;;;;7.05;5.47;;;;;;;27.61;31.15;100205.28;10361545;28;20057;-63
2023/07/07 20:11:41;;;;;;;5.70;5.18;;;;;;;27.47;30.83;100194.59;10362475;28;20454;-63
2023/07/07 20:16:48;;;;;;;6.30;5.10;;;;;;;27.37;30.62;100186.16;10360799;28;21433;-63
2023/07/07 20:21:52;;;;;;;5.75;4.65;;;;;;;27.37;30.79;100204.44;10360357;28;20055;-63
2023/07/07 20:26:54;;;;;;;5.70;4.45;;;;;;;27.29;30.88;100200.13;10358152;28;20076;-64
2023/07/07 20:32:14;;;;;;;5.72;4.60;;;;;;;27.28;31.28;100206.66;10360840;28;20062;-63
2023/07/07 20:37:15;;;;;;;;;;;;;;;27.22;31.06;100215.78;10359050;28;20053;-63
2023/07/07 20:42:16;;;;;;;4.80;4.28;;;;;;;27.08;31.10;100207.81;10357512;28;19932;-62
2023/07/07 20:47:19;;;;;;;5.22;4.20;;;;;;;27.04;31.08;100205.75;10362221;28;20050;-63
2023/07/07 20:52:20;;;;;;;4.97;4.10;;;;;;;26.98;31.12;100208.38;10363765;28;20049;-64
2023/07/07 20:57:21;;;;;;;4.88;4.15;;;;;;;26.91;31.56;100201.34;10360324;28;20061;-63
2023/07/07 21:02:24;;;;;;;5.22;4.35;;;;;;;26.89;31.59;100206.19;10363498;28;20742;-64
2023/07/07 21:07:26;;;;;;;;;;;;;;;26.86;31.80;100214.84;10359226;28;20752;-63
2023/07/07 21:12:27;;;;;;;4.97;4.00;;;;;;;26.73;32.02;100205.78;10353334;28;20030;-62
2023/07/07 21:17:29;;;;;;;5.50;4.35;;;;;;;26.71;32.05;100210.66;10357069;28;20050;-63
2023/07/07 21:22:31;;;;;;;4.40;4.00;;;;;;;26.63;32.05;100216.41;10359228;28;20045;-63
2023/07/07 21:27:33;;;;;;;6.15;4.80;;;;;;;26.56;32.65;100221.13;10355893;28;20053;-64
2023/07/07 21:32:34;;;;;;;4.07;3.67;;;;;;;26.48;32.86;100230.44;10362077;28;20481;-63
2023/07/07 21:37:36;;;;;;;4.68;4.13;;;;;;;26.39;32.77;100221.75;10359004;28;20056;-63
2023/07/07 21:42:37;;;;;;;6.65;4.15;;;;;;;26.30;32.62;100223.09;10357068;28;20291;-64
2023/07/07 21:47:39;;;;;;;5.18;4.60;;;;;;;26.14;33.13;100219.13;10359404;28;20064;-63
2023/07/07 21:52:42;;;;;;;5.15;4.45;;;;;;;26.14;32.92;100221.84;10355166;28;20104;-63
2023/07/07 21:57:47;;;;;;;5.68;4.70;;;;;;;25.97;33.21;100210.66;10356241;28;20045;-63
2023/07/07 22:02:50;;;;;;;4.93;4.43;;;;;;;25.86;33.42;100211.41;10355267;28;20300;-63
2023/07/07 22:07:52;;;;;;;5.05;4.38;;;;;;;25.86;33.45;100222.31;10353479;28;20061;-62
2023/07/07 22:12:55;;;;;;;6.40;4.27;;;;;;;25.69;33.78;100201.09;10357935;28;20065;-61
2023/07/07 22:17:57;;;;;;;5.40;4.90;;;;;;;25.76;33.82;100223.69;10355233;28;20046;-63
2023/07/07 22:23:00;;;;;;;6.57;4.63;;;;;;;25.71;33.96;100242.56;10357864;28;20630;-62
2023/07/07 22:28:03;;;;;;;5.55;5.00;;;;;;;25.66;34.36;100242.44;10359566;28;20057;-62
2023/07/07 22:33:07;;;;;;;5.38;4.43;;;;;;;25.62;34.31;100245.81;10356275;28;20052;-62
2023/07/07 22:38:14;;;;;;;5.70;4.32;;;;;;;25.55;34.34;100244.00;10358735;28;20048;-62
2023/07/07 22:43:15;;;;;;;5.90;4.57;;;;;;;25.46;34.55;100249.94;10356444;28;20048;-61
2023/07/07 22:48:18;;;;;;;6.80;4.77;;;;;;;25.43;34.50;100250.38;10354072;28;20053;-62
2023/07/07 22:53:19;;;;;;;6.03;4.67;;;;;;;25.35;34.47;100244.13;10354096;28;20052;-62
2023/07/07 22:58:21;;;;;;;4.72;4.00;;;;;;;25.28;34.47;100242.50;10354227;28;20232;-62
2023/07/07 23:03:22;;;;;;;5.22;4.72;;;;;;;25.18;34.13;100232.91;10355600;28;20057;-62
2023/07/07 23:08:25;;;;;;;6.68;4.68;;;;;;;25.19;34.35;100245.50;10359632;28;20592;-62
2023/07/07 23:13:26;;;;;;;5.47;4.37;;;;;;;25.05;34.87;100233.84;10355043;28;20061;-62
2023/07/07 23:18:28;;;;;;;4.53;3.95;;;;;;;25.09;34.70;100250.59;10356393;28;20753;-63
2023/07/07 23:23:29;;;;;;;4.32;3.75;;;;;;;25.03;35.06;100246.84;10368163;28;20456;-62
2023/07/07 23:28:32;;;;;;;5.22;4.75;;;;;;;24.98;34.81;100243.09;10358491;28;20172;-62